5  °C
Temperature
41  °F
Temperature
36  °F
 Dewpoint
2  °C
  Dewpoint
 %
 Humidity
  Temperature
11  km/h
Wind Speed
6  kts
Wind Speed
7  mph
Wind Speed
3.1  m/s
Wind Speed
10°
Due North

Wind Speed
Clear
Conditions
Pressure 1023.92 (hPa) - 30.24 (inHG)
Visibility 7.0 (km) - 4.4 (mi)

Sky Conditions
LTBA
Location 20 km (12.43 mi)
Metar :LTBA 190050Z 01006KT 7000 NSC 05/02 Q1024 NOSIG RMK RWY17L 36004KT RWY05 00000KT RWY23 35004KT
Tue 19th February 01:50 am

Nearest Airport
https://www.checkwx.com/weather/MROC
  Metar Aviation API Data Provided by https://www.checkwx.com/ Original CSS/SVG/PHP scripts by weather34.com © 2015-2019